Jefferson City, Missouri
Current Conditions -  °F | °C
As of 2:53 PM on Sunday 23 Nov 2014 (Local Time) from KJEF Reporting Station
Haze Haze  
Wind Chill: 12°   Ceiling: 600
Heat Index: 12°   Visibility: 4mi
Dew Point: 12°   Wind: 3mph
Humidity: 97%   Direction: 100°E
Pressure: 29.35"   Gusts: NA
Location:  38.58°N, 92.18°W
Report Text: KJEF 232053Z 10003KT 4SM BR OVC006 12/12 A2935 RMK AO2 RAB1958E13 SLP927 P0001 60001 T01220117 56040
Loading
Personal Weather Stations






























Interactive Weather Map New forecast layout! Learn more

10-Day Weather Forecast

Advertisements
Track Severe Weather on mobile